LXGBLEAL

Guest
Details From LXGB - Gibraltar
To LEAL - Alicante
Flight Number -
Tags decoded
Created
Modified
Stats Distance 263 nm / 487 km
Max Altitude 0 ft / 0 m
Waypoints 4
Social Downloads 0
Likes 0
Share VATSIM

Download

Looking for another format? Having issues loading an existing format? Contact us
Advertisement - Login to hide

Notes

Requested: LXGB MAG ROLAS TOSGA LEAL

Route

LXGB ROLAS TOSGA LEAL

ID Type Via Altitude Latitude Longitude Leg Dist Tot Dist Heading (true) Name
O LXGB APT - 0 ft / 0 m 36.15121˚ -5.34966˚ - 0 nm - Gibraltar
ROLAS FIX - 0 ft / 0 m 37.41565˚ -2.85436˚ 142 nm 142 nm 57° / 58° -
TOSGA FIX - 0 ft / 0 m 37.62567˚ -2.30736˚ 28 nm 170 nm 64° / 64° -
O LEAL APT - 0 ft / 0 m 38.28217˚ -0.55816˚ 91 nm 262 nm 64° / 65° Alicante

Altitude Profile

Advertisement - Login to hide

Weather


0- 5 10 15 20 25 30 35+ Temperature / ° C

Clouds and Precipitation
Forecast for 2017-12-14 18:00 UTC. Updated 12 minutes ago

Ground ~20,000 ft ~40,000 ft Winds

LXGB

Details ICAO LXGB (GIB)
Name Gibraltar
Region Gibralter
Timezone Europe/Gibraltar (UTC+1.0)
Stats Elevation 15 ft / 5 m (AMSL)
Location 36.151209° -5.349664°
Runways 1
Magnetic Variation 1.123° W

METAR

LXGB 141650Z 27017KT 9999 FEW018 SCT180 BKN220 16/11 Q1022 NOSIG

Decode

TAF

Not found

Departure Runways

ID Width Length Bearing (true) Bearing (mag) Surface Threshold Offset Overrun Length
27 151 ft / 46 m 5,992 ft / 1,826 m 267.56° 268.68° Asphalt 367 ft / 112 m 89 ft / 27 m
9 151 ft / 46 m 5,992 ft / 1,826 m 87.54° 88.66° Asphalt 299 ft / 91 m 52 ft / 16 m

LEAL

Details ICAO LEAL (ALC)
Name Alicante
Region Spain
Timezone Europe/Madrid (UTC+1.0)
Stats Elevation 141 ft / 43 m (AMSL)
Location 38.282169° -0.558157°
Runways 1
Magnetic Variation 0.183° E

METAR

LEAL 141730Z 30020G32KT 270V330 CAVOK 16/07 Q1016 NOSIG

Decode

TAF

TAF TAF LEAL 141100Z 1412/1512 29014KT 9999 FEW030 TX20/1413Z TN10/1506Z TEMPO 1412/1416 29016G28KT BECMG 1420/1422 24011KT

Decode

Destination Runways

ID Width Length Bearing (true) Bearing (mag) Surface Threshold Offset Overrun Length
10 148 ft / 45 m 9,799 ft / 2,987 m 100.07° 99.89° Asphalt 0 ft / 0 m 164 ft / 50 m
28 148 ft / 45 m 9,799 ft / 2,987 m 280.09° 279.91° Asphalt 0 ft / 0 m 197 ft / 60 m

Approach Navaids

Runway Type Ident Frequency Range Bearing (true) Bearing (mag) Slope Elevation
10 Localiser IAT 110.30 MHz 18 nm / 33 km 100.09° 99.91° - 29 ft / 9 m (AMSL)
10 Glidescope IAT 110.30 MHz 10 nm / 19 km 100.09° 99.91° 3.00° 129 ft / 39 m (AMSL)
10 DME IAT 110.30 MHz 18 nm / 33 km - - - 129 ft / 39 m (AMSL)

Popular Alternatives